createdAt,value
2023-03-08T00:01:04.455Z,96990.81
2023-03-08T00:03:31.076Z,96993.13
2023-03-08T00:05:57.712Z,96999.66
2023-03-08T00:08:24.346Z,97009.81
2023-03-08T00:10:50.994Z,97001.75
2023-03-08T00:13:17.658Z,96992.00
2023-03-08T00:15:44.493Z,96996.63
2023-03-08T00:18:11.112Z,97001.69
2023-03-08T00:20:37.632Z,96997.09
2023-03-08T00:23:04.330Z,97000.19
2023-03-08T00:25:30.966Z,97005.59
2023-03-08T00:27:57.569Z,96994.66
2023-03-08T00:30:24.162Z,97000.84
2023-03-08T00:32:50.770Z,96992.81
2023-03-08T00:35:20.007Z,96992.81
2023-03-08T00:37:46.640Z,96995.97
2023-03-08T00:40:13.396Z,96996.22
2023-03-08T00:42:40.164Z,97004.03
2023-03-08T00:45:07.393Z,97012.09
2023-03-08T00:47:35.696Z,97016.00
2023-03-08T00:50:02.257Z,97015.97
2023-03-08T00:52:29.527Z,97008.47
2023-03-08T00:54:56.120Z,96995.41
2023-03-08T00:57:22.631Z,96989.22
2023-03-08T00:59:49.186Z,96984.06
2023-03-08T01:02:15.823Z,96979.59
2023-03-08T01:04:42.354Z,96965.22
2023-03-08T01:07:08.925Z,96964.38
2023-03-08T01:09:35.453Z,96948.88
2023-03-08T01:12:02.049Z,96942.28
2023-03-08T01:14:30.097Z,96950.78
2023-03-08T01:16:56.669Z,96941.91
2023-03-08T01:19:23.245Z,96943.41
2023-03-08T01:21:49.775Z,96944.59
2023-03-08T01:24:16.368Z,96943.06
2023-03-08T01:26:42.899Z,96952.59
2023-03-08T01:29:09.532Z,96942.47
2023-03-08T01:31:36.093Z,96935.44
2023-03-08T01:36:40.872Z,96926.41
2023-03-08T01:39:07.502Z,96920.97
2023-03-08T01:41:34.174Z,96917.81
2023-03-08T01:44:00.854Z,96913.13
2023-03-08T01:46:34.424Z,96907.84
2023-03-08T01:49:17.744Z,96910.91
2023-03-08T01:52:12.619Z,96909.22
2023-03-08T01:54:44.043Z,96913.44
2023-03-08T01:57:31.698Z,96910.69
2023-03-08T02:00:07.128Z,96909.84
2023-03-08T02:02:41.911Z,96910.63
2023-03-08T02:05:09.854Z,96913.56
2023-03-08T02:07:36.489Z,96912.25
2023-03-08T02:10:03.609Z,96908.81
2023-03-08T02:12:30.564Z,96904.44
2023-03-08T02:14:58.532Z,96903.97
2023-03-08T02:17:26.570Z,96900.97
2023-03-08T02:20:19.099Z,96908.28
2023-03-08T02:22:47.129Z,96909.72
2023-03-08T02:25:19.724Z,96897.78
2023-03-08T02:27:46.631Z,96900.56
2023-03-08T02:30:15.483Z,96899.03
2023-03-08T02:32:42.071Z,96884.91
2023-03-08T02:35:09.072Z,96880.41
2023-03-08T02:37:35.685Z,96878.91
2023-03-08T02:40:02.261Z,96873.38
2023-03-08T02:42:28.812Z,96865.34
2023-03-08T02:44:55.391Z,96869.50
2023-03-08T02:47:21.919Z,96863.00
2023-03-08T02:49:48.484Z,96853.44
2023-03-08T02:52:15.158Z,96849.56
2023-03-08T02:54:41.872Z,96853.03
2023-03-08T02:57:08.434Z,96851.09
2023-03-08T02:59:34.998Z,96855.19
2023-03-08T03:02:01.755Z,96856.50
2023-03-08T03:04:32.755Z,96855.31
2023-03-08T03:06:59.743Z,96860.41
2023-03-08T03:09:27.333Z,96854.56
2023-03-08T03:11:54.016Z,96845.00
2023-03-08T03:14:20.577Z,96842.53
2023-03-08T03:19:18.572Z,96826.94
2023-03-08T03:21:45.138Z,96816.88
2023-03-08T03:24:11.800Z,96805.25
2023-03-08T03:26:39.110Z,96801.56
2023-03-08T03:29:05.722Z,96790.59
2023-03-08T03:31:32.423Z,96794.13
2023-03-08T03:33:59.078Z,96793.25
2023-03-08T03:36:25.745Z,96787.91
2023-03-08T03:38:52.410Z,96793.19
2023-03-08T03:41:21.783Z,96796.00
2023-03-08T03:43:49.568Z,96786.69
2023-03-08T03:46:19.309Z,96785.72
2023-03-08T03:48:46.641Z,96769.00
2023-03-08T03:51:18.878Z,96765.13
2023-03-08T03:53:46.268Z,96765.59
2023-03-08T03:56:22.509Z,96771.50
2023-03-08T03:58:50.145Z,96768.47
2023-03-08T04:01:22.253Z,96762.34
2023-03-08T04:03:49.356Z,96763.75
2023-03-08T04:06:19.318Z,96765.69
2023-03-08T04:11:27.240Z,96758.69
2023-03-08T04:13:54.325Z,96755.00
2023-03-08T04:16:24.694Z,96751.44
2023-03-08T04:18:57.452Z,96738.94
2023-03-08T04:21:24.800Z,96730.09
2023-03-08T04:23:51.578Z,96734.69
2023-03-08T04:28:51.683Z,96730.47
2023-03-08T04:31:23.548Z,96738.94
2023-03-08T04:36:22.503Z,96733.84
2023-03-08T04:38:50.987Z,96743.13
2023-03-08T04:41:18.523Z,96732.34
2023-03-08T04:43:50.954Z,96735.34
2023-03-08T04:46:19.403Z,96726.13
2023-03-08T04:48:46.796Z,96719.34
2023-03-08T04:53:46.936Z,96700.63
2023-03-08T05:01:23.345Z,96699.81
2023-03-08T05:03:51.358Z,96701.25
2023-03-08T05:06:19.840Z,96685.34
2023-03-08T05:08:46.749Z,96679.75
2023-03-08T05:11:25.613Z,96681.38
2023-03-08T05:13:54.789Z,96672.09
2023-03-08T05:16:21.750Z,96669.75
2023-03-08T05:18:48.760Z,96663.56
2023-03-08T05:21:18.108Z,96659.66
2023-03-08T05:23:44.855Z,96659.75
2023-03-08T05:26:14.506Z,96666.56
2023-03-08T05:28:44.042Z,96672.06
2023-03-08T05:31:14.809Z,96672.81
2023-03-08T05:33:42.689Z,96665.16
2023-03-08T05:36:10.819Z,96672.13
2023-03-08T05:38:37.377Z,96669.47
2023-03-08T05:41:06.813Z,96668.72
2023-03-08T05:43:34.306Z,96664.50
2023-03-08T05:46:15.333Z,96650.66
2023-03-08T05:48:42.208Z,96644.50
2023-03-08T05:51:11.625Z,96635.97
2023-03-08T05:53:38.266Z,96631.00
2023-03-08T05:56:23.893Z,96627.53
2023-03-08T05:58:51.822Z,96628.72
2023-03-08T06:01:21.131Z,96632.19
2023-03-08T06:03:49.931Z,96639.22
2023-03-08T06:06:17.511Z,96642.31
2023-03-08T06:08:44.556Z,96641.13
2023-03-08T06:11:13.236Z,96647.28
2023-03-08T06:13:40.516Z,96644.94
2023-03-08T06:16:08.045Z,96641.19
2023-03-08T06:18:37.085Z,96634.31
2023-03-08T06:21:12.634Z,96633.16
2023-03-08T06:23:40.016Z,96634.63
2023-03-08T06:26:08.217Z,96626.97
2023-03-08T06:28:35.829Z,96619.63
2023-03-08T06:31:03.324Z,96627.72
2023-03-08T06:33:31.776Z,96612.66
2023-03-08T06:36:02.852Z,96610.28
2023-03-08T06:38:33.297Z,96615.28
2023-03-08T06:41:00.554Z,96604.47
2023-03-08T06:43:27.922Z,96592.16
2023-03-08T06:45:54.855Z,96601.03
2023-03-08T06:48:21.506Z,96592.63
2023-03-08T06:50:48.070Z,96591.53
2023-03-08T06:53:14.799Z,96582.16
2023-03-08T06:55:42.098Z,96573.97
2023-03-08T06:58:09.272Z,96567.34
2023-03-08T07:05:44.558Z,96563.53
2023-03-08T07:08:11.197Z,96566.25
2023-03-08T07:10:37.794Z,96562.78
2023-03-08T07:13:04.440Z,96556.38
2023-03-08T07:15:31.072Z,96553.53
2023-03-08T07:17:57.773Z,96548.88
2023-03-08T07:20:26.381Z,96538.03
2023-03-08T07:22:54.126Z,96539.19
2023-03-08T07:25:21.196Z,96540.66
2023-03-08T07:27:47.962Z,96540.97
2023-03-08T07:30:16.114Z,96551.47
2023-03-08T07:32:43.197Z,96542.19
2023-03-08T07:35:12.209Z,96535.75
2023-03-08T07:37:39.092Z,96537.13
2023-03-08T07:40:07.249Z,96535.22
2023-03-08T07:45:07.292Z,96524.91
2023-03-08T07:47:33.862Z,96522.97
2023-03-08T07:50:00.427Z,96519.50
2023-03-08T07:52:31.413Z,96514.94
2023-03-08T07:54:58.109Z,96508.75
2023-03-08T07:59:58.756Z,96502.59
2023-03-08T08:02:25.366Z,96494.47
2023-03-08T08:04:52.009Z,96492.47
2023-03-08T08:07:18.623Z,96493.22
2023-03-08T08:09:45.166Z,96478.25
2023-03-08T08:12:11.808Z,96470.97
2023-03-08T08:17:16.248Z,96458.22
2023-03-08T08:19:42.850Z,96460.19
2023-03-08T08:22:09.418Z,96450.53
2023-03-08T08:24:36.054Z,96448.66
2023-03-08T08:27:02.975Z,96443.59
2023-03-08T08:29:29.633Z,96432.41
2023-03-08T08:31:57.085Z,96429.31
2023-03-08T08:34:24.038Z,96420.81
2023-03-08T08:36:50.625Z,96408.47
2023-03-08T08:39:17.262Z,96385.66
2023-03-08T08:41:43.826Z,96389.88
2023-03-08T08:44:10.419Z,96377.50
2023-03-08T08:46:37.073Z,96372.06
2023-03-08T08:49:05.620Z,96377.84
2023-03-08T08:51:32.798Z,96366.22
2023-03-08T08:53:59.660Z,96366.63
2023-03-08T08:56:28.901Z,96360.88
2023-03-08T08:58:57.302Z,96357.75
2023-03-08T09:03:59.670Z,96337.25
2023-03-08T09:06:28.553Z,96368.16
2023-03-08T09:08:59.663Z,96355.03
2023-03-08T09:11:27.581Z,96367.34
2023-03-08T09:13:54.881Z,96346.78
2023-03-08T09:16:39.505Z,96344.88
2023-03-08T09:21:40.163Z,96351.09
2023-03-08T09:26:40.117Z,96341.09
2023-03-08T09:29:07.734Z,96336.84
2023-03-08T09:31:36.724Z,96328.34
2023-03-08T09:34:05.369Z,96327.19
2023-03-08T09:36:31.972Z,96324.88
2023-03-08T09:38:58.489Z,96312.13
2023-03-08T09:41:49.599Z,96290.81
2023-03-08T09:47:50.669Z,96266.78
2023-03-08T09:50:29.565Z,96280.34
2023-03-08T09:53:00.279Z,96281.53
2023-03-08T09:55:33.512Z,96285.81
2023-03-08T09:58:05.170Z,96265.28
2023-03-08T10:00:37.637Z,96276.16
2023-03-08T10:03:13.203Z,96259.91
2023-03-08T10:06:03.973Z,96273.44
2023-03-08T10:08:46.788Z,96246.78
2023-03-08T10:11:21.230Z,96251.44
2023-03-08T10:13:52.446Z,96254.13
2023-03-08T10:16:26.263Z,96244.06
2023-03-08T10:19:04.576Z,96247.56
2023-03-08T10:21:33.991Z,96243.31
2023-03-08T10:24:12.135Z,96235.56
2023-03-08T10:26:38.688Z,96224.72
2023-03-08T10:29:05.372Z,96225.50
2023-03-08T10:31:33.923Z,96235.16
2023-03-08T10:34:09.158Z,96221.94
2023-03-08T10:36:48.279Z,96228.50
2023-03-08T10:39:16.489Z,96232.34
2023-03-08T10:41:46.301Z,96224.13
2023-03-08T10:44:31.232Z,96227.13
2023-03-08T10:46:57.775Z,96213.44
2023-03-08T10:49:27.756Z,96209.03
2023-03-08T10:52:00.444Z,96208.59
2023-03-08T10:54:28.704Z,96211.31
2023-03-08T10:56:59.185Z,96202.38
2023-03-08T10:59:34.926Z,96205.34
2023-03-08T11:02:13.550Z,96204.88
2023-03-08T11:04:51.229Z,96186.16
2023-03-08T11:07:24.769Z,96198.16
2023-03-08T11:09:52.130Z,96203.47
2023-03-08T11:12:26.368Z,96194.47
2023-03-08T11:14:53.241Z,96185.41
2023-03-08T11:17:35.645Z,96185.69
2023-03-08T11:20:13.971Z,96182.34
2023-03-08T11:22:49.381Z,96172.84
2023-03-08T11:25:19.763Z,96182.59
2023-03-08T11:31:05.919Z,96190.50
2023-03-08T11:34:03.383Z,96186.03
2023-03-08T11:37:07.089Z,96192.53
2023-03-08T11:39:40.595Z,96187.06
2023-03-08T11:42:29.960Z,96183.06
2023-03-08T11:45:25.858Z,96187.25
2023-03-08T11:48:13.975Z,96182.03
2023-03-08T11:50:53.451Z,96174.56
2023-03-08T11:53:22.556Z,96173.69
2023-03-08T11:56:09.660Z,96178.19
2023-03-08T11:58:53.514Z,96174.50
2023-03-08T12:01:24.618Z,96186.53
2023-03-08T12:03:56.030Z,96173.25
2023-03-08T12:06:33.397Z,96186.47
2023-03-08T12:09:18.957Z,96186.75
2023-03-08T12:11:51.593Z,96178.06
2023-03-08T12:14:30.926Z,96174.84
2023-03-08T12:17:07.739Z,96167.66
2023-03-08T12:19:48.534Z,96180.81
2023-03-08T12:22:43.066Z,96167.09
2023-03-08T12:25:22.877Z,96175.50
2023-03-08T12:27:55.737Z,96176.19
2023-03-08T12:30:33.928Z,96176.84
2023-03-08T12:33:04.593Z,96179.06
2023-03-08T12:35:34.516Z,96193.06
2023-03-08T12:38:05.196Z,96189.84
2023-03-08T12:40:44.463Z,96182.75
2023-03-08T12:43:28.615Z,96184.63
2023-03-08T12:46:04.700Z,96170.78
2023-03-08T12:48:35.663Z,96185.91
2023-03-08T12:51:08.355Z,96183.31
2023-03-08T12:53:41.778Z,96186.75
2023-03-08T12:56:11.246Z,96191.84
2023-03-08T12:59:00.179Z,96188.34
2023-03-08T13:01:29.620Z,96190.50
2023-03-08T13:03:56.710Z,96187.72
2023-03-08T13:06:23.315Z,96191.97
2023-03-08T13:08:57.383Z,96183.03
2023-03-08T13:11:27.041Z,96187.91
2023-03-08T13:16:38.465Z,96189.44
2023-03-08T13:19:13.887Z,96188.25
2023-03-08T13:21:58.924Z,96181.19
2023-03-08T13:24:36.665Z,96186.97
2023-03-08T13:27:09.320Z,96195.09
2023-03-08T13:29:36.372Z,96181.78
2023-03-08T13:32:12.022Z,96189.63
2023-03-08T13:34:38.894Z,96191.44
2023-03-08T13:37:05.510Z,96190.94
2023-03-08T13:39:32.359Z,96192.41
2023-03-08T13:42:11.286Z,96180.25
2023-03-08T13:47:37.847Z,96181.81
2023-03-08T13:50:06.404Z,96173.88
2023-03-08T13:55:21.062Z,96172.59
2023-03-08T13:57:52.307Z,96166.22
2023-03-08T14:00:18.900Z,96165.78
2023-03-08T14:02:47.207Z,96165.69
2023-03-08T14:05:18.264Z,96164.59
2023-03-08T14:08:06.169Z,96147.66
2023-03-08T14:11:01.202Z,96132.59
2023-03-08T14:13:32.418Z,96142.50
2023-03-08T14:16:01.859Z,96119.88
2023-03-08T14:21:15.342Z,96128.97
2023-03-08T14:23:54.795Z,96128.22
2023-03-08T14:26:33.948Z,96120.75
2023-03-08T14:29:21.869Z,96140.78
2023-03-08T14:31:55.897Z,96132.56
2023-03-08T14:34:26.146Z,96138.38
2023-03-08T14:36:59.439Z,96131.03
2023-03-08T14:39:28.688Z,96123.72
2023-03-08T14:41:55.922Z,96137.69
2023-03-08T14:44:29.550Z,96121.63
2023-03-08T14:46:58.930Z,96116.50
2023-03-08T14:49:28.405Z,96114.78
2023-03-08T14:51:55.891Z,96120.25
2023-03-08T14:54:33.310Z,96103.06
2023-03-08T14:57:13.906Z,96104.69
2023-03-08T14:59:41.636Z,96093.75
2023-03-08T15:02:13.388Z,96103.16
2023-03-08T15:04:40.589Z,96112.56
2023-03-08T15:07:07.880Z,96109.94
2023-03-08T15:09:34.958Z,96114.63
2023-03-08T15:12:01.918Z,96116.50
2023-03-08T15:14:30.641Z,96130.69
2023-03-08T15:16:58.357Z,96102.13
2023-03-08T15:19:25.233Z,96097.13
2023-03-08T15:21:52.262Z,96105.13
2023-03-08T15:24:19.396Z,96104.00
2023-03-08T15:26:46.494Z,96099.97
2023-03-08T15:29:28.469Z,96102.97
2023-03-08T15:31:55.838Z,96094.22
2023-03-08T15:34:22.557Z,96086.25
2023-03-08T15:36:50.733Z,96090.63
2023-03-08T15:39:17.837Z,96090.31
2023-03-08T15:41:44.477Z,96093.69
2023-03-08T15:44:11.005Z,96084.56
2023-03-08T15:46:37.764Z,96081.06
2023-03-08T15:49:04.941Z,96085.88
2023-03-08T15:51:34.746Z,96085.53
2023-03-08T15:54:02.864Z,96078.19
2023-03-08T15:56:29.423Z,96098.22
2023-03-08T15:58:56.782Z,96071.63
2023-03-08T16:01:25.272Z,96078.97
2023-03-08T16:03:53.487Z,96081.34
2023-03-08T16:06:20.354Z,96082.56
2023-03-08T16:08:47.205Z,96078.50
2023-03-08T16:11:16.630Z,96076.00
2023-03-08T16:13:43.254Z,96085.41
2023-03-08T16:16:10.166Z,96093.63
2023-03-08T16:18:37.248Z,96088.66
2023-03-08T16:21:11.515Z,96081.31
2023-03-08T16:23:39.360Z,96080.00
2023-03-08T16:26:16.244Z,96077.72
2023-03-08T16:28:45.259Z,96077.38
2023-03-08T16:31:12.599Z,96075.31
2023-03-08T16:33:39.904Z,96076.09
2023-03-08T16:36:07.357Z,96083.50
2023-03-08T16:41:12.599Z,96073.72
2023-03-08T16:46:21.542Z,96081.59
2023-03-08T16:51:23.876Z,96069.75
2023-03-08T16:53:51.103Z,96067.50
2023-03-08T16:56:25.935Z,96072.97
2023-03-08T16:58:57.469Z,96071.75
2023-03-08T17:01:24.761Z,96065.97
2023-03-08T17:03:52.509Z,96064.41
2023-03-08T17:06:22.242Z,96056.44
2023-03-08T17:08:49.213Z,96057.25
2023-03-08T17:11:17.867Z,96063.16
2023-03-08T17:13:50.969Z,96056.94
2023-03-08T17:16:23.144Z,96058.63
2023-03-08T17:18:50.693Z,96053.97
2023-03-08T17:21:19.075Z,96066.19
2023-03-08T17:26:23.137Z,96058.84
2023-03-08T17:28:54.179Z,96058.84
2023-03-08T17:31:22.338Z,96061.13
2023-03-08T17:33:49.214Z,96062.56
2023-03-08T17:36:16.177Z,96066.84
2023-03-08T17:38:43.113Z,96066.94
2023-03-08T17:41:12.438Z,96069.66
2023-03-08T17:43:41.157Z,96067.78
2023-03-08T17:46:22.470Z,96072.81
2023-03-08T17:48:50.771Z,96061.63
2023-03-08T17:51:23.087Z,96069.78
2023-03-08T17:53:50.050Z,96077.53
2023-03-08T17:56:25.139Z,96068.41
2023-03-08T17:58:52.470Z,96078.97
2023-03-08T18:01:21.617Z,96081.72
2023-03-08T18:03:48.636Z,96086.84
2023-03-08T18:06:19.937Z,96084.09
2023-03-08T18:08:46.522Z,96093.84
2023-03-08T18:11:13.082Z,96082.06
2023-03-08T18:13:40.807Z,96083.00
2023-03-08T18:16:07.878Z,96062.47
2023-03-08T18:18:34.468Z,96062.69
2023-03-08T18:21:12.510Z,96061.06
2023-03-08T18:23:39.629Z,96060.00
2023-03-08T18:26:06.315Z,96072.91
2023-03-08T18:28:34.350Z,96073.69
2023-03-08T18:31:06.081Z,96064.13
2023-03-08T18:33:32.634Z,96059.88
2023-03-08T18:35:59.386Z,96068.56
2023-03-08T18:38:26.371Z,96072.50
2023-03-08T18:40:53.204Z,96060.88
2023-03-08T18:43:19.836Z,96082.47
2023-03-08T18:45:53.937Z,96070.34
2023-03-08T18:48:22.001Z,96080.25
2023-03-08T18:50:48.824Z,96068.91
2023-03-08T18:53:18.133Z,96062.66
2023-03-08T18:56:04.290Z,96066.50
2023-03-08T18:58:31.108Z,96077.88
2023-03-08T19:00:59.235Z,96062.34
2023-03-08T19:06:04.975Z,96057.75
2023-03-08T19:11:15.669Z,96047.06
2023-03-08T19:13:43.450Z,96059.53
2023-03-08T19:16:27.991Z,96056.44
2023-03-08T19:19:00.123Z,96052.44
2023-03-08T19:21:32.280Z,96049.81
2023-03-08T19:26:36.176Z,96072.06
2023-03-08T19:29:15.522Z,96055.41
2023-03-08T19:31:43.465Z,96051.16
2023-03-08T19:34:11.402Z,96059.25
2023-03-08T19:36:38.210Z,96056.34
2023-03-08T19:39:07.585Z,96058.00
2023-03-08T19:41:34.587Z,96057.53
2023-03-08T19:44:06.967Z,96047.47
2023-03-08T19:46:38.540Z,96062.50
2023-03-08T19:49:07.662Z,96047.72
2023-03-08T19:51:34.694Z,96045.09
2023-03-08T19:54:01.358Z,96052.84
2023-03-08T19:56:27.924Z,96049.50
2023-03-08T19:58:59.391Z,96053.44
2023-03-08T20:01:27.072Z,96048.06
2023-03-08T20:03:54.161Z,96046.59
2023-03-08T20:06:29.183Z,96046.69
2023-03-08T20:08:57.119Z,96054.94
2023-03-08T20:11:24.674Z,96045.66
2023-03-08T20:13:51.448Z,96055.13
2023-03-08T20:16:19.711Z,96062.69
2023-03-08T20:18:49.239Z,96062.69
2023-03-08T20:21:20.039Z,96067.16
2023-03-08T20:23:47.773Z,96067.94
2023-03-08T20:26:14.397Z,96078.09
2023-03-08T20:28:41.006Z,96088.56
2023-03-08T20:31:12.571Z,96087.09
2023-03-08T20:33:39.891Z,96091.59
2023-03-08T20:36:06.870Z,96098.44
2023-03-08T20:38:33.701Z,96101.75
2023-03-08T20:41:03.282Z,96116.25
2023-03-08T20:43:31.048Z,96115.63
2023-03-08T20:46:00.252Z,96125.41
2023-03-08T20:48:26.862Z,96128.63
2023-03-08T20:50:59.558Z,96134.69
2023-03-08T20:53:27.154Z,96132.47
2023-03-08T20:58:25.827Z,96107.69
2023-03-08T21:00:52.978Z,96119.44
2023-03-08T21:03:19.560Z,96134.22
2023-03-08T21:05:46.186Z,96126.88
2023-03-08T21:08:12.771Z,96135.16
2023-03-08T21:10:40.058Z,96141.28
2023-03-08T21:13:07.072Z,96119.63
2023-03-08T21:15:35.031Z,96105.72
2023-03-08T21:18:01.736Z,96106.84
2023-03-08T21:20:28.347Z,96104.09
2023-03-08T21:25:26.194Z,96102.50
2023-03-08T21:27:52.717Z,96093.13
2023-03-08T21:30:19.578Z,96098.50
2023-03-08T21:32:46.131Z,96099.13
2023-03-08T21:35:12.843Z,96101.50
2023-03-08T21:37:39.383Z,96107.81
2023-03-08T21:40:07.417Z,96104.75
2023-03-08T21:42:34.094Z,96102.34
2023-03-08T21:45:00.836Z,96099.84
2023-03-08T21:47:27.417Z,96090.91
2023-03-08T21:49:53.937Z,96103.38
2023-03-08T21:52:20.515Z,96109.84
2023-03-08T21:54:47.037Z,96113.53
2023-03-08T21:57:13.616Z,96108.16
2023-03-08T21:59:40.232Z,96101.13
2023-03-08T22:02:09.922Z,96101.50
2023-03-08T22:04:38.087Z,96095.75
2023-03-08T22:07:04.657Z,96100.38
2023-03-08T22:09:31.193Z,96126.78
2023-03-08T22:11:58.602Z,96122.25
2023-03-08T22:14:25.249Z,96111.63
2023-03-08T22:16:51.821Z,96112.88
2023-03-08T22:19:18.369Z,96104.06
2023-03-08T22:21:44.975Z,96090.63
2023-03-08T22:24:11.593Z,96092.50
2023-03-08T22:26:38.253Z,96083.38
2023-03-08T22:29:05.062Z,96084.50
2023-03-08T22:34:03.302Z,96087.47
2023-03-08T22:36:29.907Z,96075.91
2023-03-08T22:38:56.474Z,96063.69
2023-03-08T22:41:25.363Z,96045.34
2023-03-08T22:43:52.822Z,96050.50
2023-03-08T22:46:22.149Z,96063.69
2023-03-08T22:51:24.496Z,96088.59
2023-03-08T22:53:51.439Z,96079.59
2023-03-08T22:56:21.767Z,96071.78
2023-03-08T22:58:48.984Z,96059.16
2023-03-08T23:01:17.822Z,96065.47
2023-03-08T23:03:44.777Z,96054.56
2023-03-08T23:06:11.388Z,96045.25
2023-03-08T23:08:38.402Z,96038.69
2023-03-08T23:11:06.360Z,96032.38
2023-03-08T23:13:34.631Z,96022.59
2023-03-08T23:16:01.917Z,96021.41
2023-03-08T23:18:29.043Z,96015.16
2023-03-08T23:20:55.740Z,95996.09
2023-03-08T23:23:25.236Z,96000.78
2023-03-08T23:25:52.649Z,95991.91
2023-03-08T23:28:19.884Z,95983.50
2023-03-08T23:30:46.701Z,95978.72
2023-03-08T23:33:13.481Z,95981.88
2023-03-08T23:35:40.282Z,95980.19
2023-03-08T23:38:07.308Z,95965.03
2023-03-08T23:40:33.855Z,95977.19
2023-03-08T23:43:00.455Z,95971.25
2023-03-08T23:45:27.189Z,95965.28
2023-03-08T23:47:53.743Z,95950.59
2023-03-08T23:50:20.380Z,95934.47
2023-03-08T23:52:46.932Z,95919.16
2023-03-08T23:55:13.654Z,95919.56
2023-03-08T23:57:40.216Z,95908.75
